Rochester, NY (14618)

6:57 AM EST on March 01, 2015 (GMT -0500)
Evans Farm | Change Station
CLOSE
Current Station
Personal Weather Station
Location: Rochester, NY
Elevation: 512 ft
Nearby Weather Stations

Elev 512 ft 43.11 °N, 77.56 °W | Updated 22 seconds ago

Snow
Snow
12.2 °F
Feels Like 12 °F
N
0.0
Wind Variable Wind from WSW
Gusts 0.0 mph

Today
High -- | Low -- °F
--% Chance of Precip.
Yesterday
High -- | Low -- °F
Precip. -- in
6:46 AM 5:59 PM
Waxing Gibbous, 84% visible
Pressure 30.49 in
Visibility 1.8 miles
Clouds Scattered Clouds 2200 ft
Overcast 2900 ft
Windchill 12 °F
Dew Point 9 °F
Humidity 85%
Rainfall 0.00 in
Snow Depth Not available.
UV 0 out of 12
Pollen .50 out of 12
Air Quality Not available.
Flu Activity Not available.
SPECI KROC 011130Z 24004KT 1 3/4SM -SN SCT022 OVC029 M12/M15 A3049 RMK AO2 SNB05 P0000 T11171150

More Conditions Fewer Conditions

Pressure 30.49 in
Visibility 1.8 miles
Clouds Scattered Clouds 2200 ft
Overcast 2900 ft
Windchill 12 °F
Dew Point 9 °F
Humidity 85%
Rainfall 0.00 in
Snow Depth Not available.
UV 0 out of 12
Pollen .50 out of 12
Air Quality Not available.
Flu Activity Not available.
SPECI KROC 011130Z 24004KT 1 3/4SM -SN SCT022 OVC029 M12/M15 A3049 RMK AO2 SNB05 P0000 T11171150

More Conditions Fewer Conditions

10-Day Weather Forecast

Almanac

Astronomy

Mar. 01, 2015 Rise Set
Actual Time
Civil Twilight
Nautical Twilight
Astronomical Twilight
Moon
Length of Visible Light
Length of Day
Tomorrow will be .
, % of the Moon is Illuminated

Today's Extremes

State Highs State Lows

Community

WunderPhotos

Upload Photos

1,801,365 photos uploaded!

WunderBlogs® & News

Nearby

Air Quality

  Air Quality AQ Index Pollutant
Not available.

Snow Depth

Station Depth Elevation

Earthquake Activity

City Distance Mag. Time & Date
Minimum magnitude displayed is 2.5.

Coastal Water Temperatures

Place Temperature

Nearby Weather Stations